createdAt,value
2019-03-20T00:01:52.865Z,109.05
2019-03-20T00:07:00.113Z,119.25
2019-03-20T00:12:07.151Z,122.20
2019-03-20T00:17:14.293Z,108.20
2019-03-20T00:22:21.656Z,102.17
2019-03-20T00:27:30.125Z,93.45
2019-03-20T00:32:37.065Z,110.52
2019-03-20T00:37:44.008Z,104.92
2019-03-20T00:42:51.074Z,116.45
2019-03-20T00:47:58.520Z,97.45
2019-03-20T00:53:05.649Z,96.85
2019-03-20T00:58:12.907Z,110.50
2019-03-20T01:03:20.205Z,109.60
2019-03-20T01:08:27.129Z,104.67
2019-03-20T01:13:35.191Z,110.95
2019-03-20T01:18:42.553Z,107.70
2019-03-20T01:23:51.522Z,119.10
2019-03-20T01:28:59.519Z,105.37
2019-03-20T01:34:07.525Z,108.40
2019-03-20T01:39:14.787Z,102.42
2019-03-20T01:44:24.046Z,108.55
2019-03-20T01:49:30.974Z,113.55
2019-03-20T01:54:38.507Z,107.22
2019-03-20T01:59:45.731Z,107.07
2019-03-20T02:04:53.154Z,99.87
2019-03-20T02:10:00.446Z,98.67
2019-03-20T02:15:11.728Z,99.77
2019-03-20T02:20:20.907Z,94.37
2019-03-20T02:25:29.297Z,91.37
2019-03-20T02:30:36.172Z,92.85
2019-03-20T02:35:51.408Z,90.50
2019-03-20T02:40:53.221Z,92.85
2019-03-20T02:46:00.308Z,93.87
2019-03-20T02:51:07.621Z,82.82
2019-03-20T02:56:14.847Z,85.80
2019-03-20T03:01:22.223Z,88.65
2019-03-20T03:06:29.363Z,85.55
2019-03-20T03:11:36.290Z,76.12
2019-03-20T03:16:44.586Z,75.28
2019-03-20T03:21:52.017Z,77.60
2019-03-20T03:27:00.704Z,83.30
2019-03-20T03:32:08.943Z,70.62
2019-03-20T03:37:15.873Z,79.67
2019-03-20T03:42:23.324Z,70.28
2019-03-20T03:47:30.388Z,70.28
2019-03-20T03:52:37.390Z,75.40
2019-03-20T03:57:45.512Z,68.65
2019-03-20T04:02:53.135Z,70.70
2019-03-20T04:08:00.289Z,66.33
2019-03-20T04:13:07.958Z,61.37
2019-03-20T04:18:16.993Z,57.90
2019-03-20T04:23:26.331Z,63.28
2019-03-20T04:28:33.778Z,62.38
2019-03-20T04:33:41.545Z,65.65
2019-03-20T04:38:48.469Z,63.05
2019-03-20T04:43:56.359Z,63.78
2019-03-20T04:49:05.045Z,74.65
2019-03-20T04:54:13.045Z,65.42
2019-03-20T04:59:20.851Z,63.17
2019-03-20T05:04:27.860Z,58.95
2019-03-20T05:09:36.478Z,63.65
2019-03-20T05:14:43.866Z,63.10
2019-03-20T05:19:51.739Z,63.13
2019-03-20T05:24:59.506Z,60.00
2019-03-20T05:30:08.718Z,62.43
2019-03-20T05:35:16.070Z,57.10
2019-03-20T05:40:24.183Z,61.95
2019-03-20T05:45:32.247Z,62.30
2019-03-20T05:50:40.341Z,59.08
2019-03-20T05:55:47.897Z,51.85
2019-03-20T06:00:56.773Z,59.15
2019-03-20T06:06:05.008Z,53.48
2019-03-20T06:11:13.257Z,63.92
2019-03-20T06:16:21.635Z,51.15
2019-03-20T06:21:29.892Z,55.67
2019-03-20T06:26:38.953Z,58.30
2019-03-20T06:31:45.893Z,109.20
2019-03-20T06:36:54.431Z,60.78
2019-03-20T06:42:02.027Z,51.02
2019-03-20T06:47:10.378Z,50.55
2019-03-20T06:52:17.504Z,50.15
2019-03-20T06:57:26.381Z,46.63
2019-03-20T07:02:34.815Z,52.95
2019-03-20T07:07:44.416Z,48.28
2019-03-20T07:12:51.726Z,48.40
2019-03-20T07:17:58.801Z,43.42
2019-03-20T07:23:05.924Z,43.75
2019-03-20T07:28:12.840Z,45.65
2019-03-20T07:33:19.901Z,46.40
2019-03-20T07:38:28.685Z,39.63
2019-03-20T07:43:36.787Z,46.20
2019-03-20T07:48:43.985Z,43.78
2019-03-20T07:53:50.694Z,45.20
2019-03-20T07:58:58.822Z,52.67
2019-03-20T08:04:06.388Z,43.28
2019-03-20T08:09:14.053Z,45.78
2019-03-20T08:14:22.442Z,43.95
2019-03-20T08:19:30.122Z,45.75
2019-03-20T08:24:38.171Z,39.30
2019-03-20T08:29:46.636Z,48.80
2019-03-20T08:34:54.569Z,40.33
2019-03-20T08:40:02.184Z,42.83
2019-03-20T08:45:22.464Z,43.78
2019-03-20T08:50:30.275Z,38.58
2019-03-20T08:55:37.983Z,45.90
2019-03-20T09:00:46.028Z,44.88
2019-03-20T09:05:52.916Z,49.23
2019-03-20T09:11:00.718Z,47.85
2019-03-20T09:16:09.625Z,42.25
2019-03-20T09:21:17.425Z,44.85
2019-03-20T09:26:25.696Z,56.60
2019-03-20T09:31:32.730Z,44.35
2019-03-20T09:36:43.266Z,49.42
2019-03-20T09:41:48.621Z,42.40
2019-03-20T09:46:57.356Z,55.00
2019-03-20T09:52:04.452Z,61.83
2019-03-20T09:57:11.750Z,53.55
2019-03-20T10:02:19.186Z,57.15
2019-03-20T10:07:27.137Z,52.75
2019-03-20T10:12:34.261Z,49.65
2019-03-20T10:17:41.231Z,47.67
2019-03-20T10:22:50.979Z,54.75
2019-03-20T10:28:01.137Z,55.85
2019-03-20T10:38:15.898Z,113.10
2019-03-20T10:43:22.777Z,101.27
2019-03-20T10:48:30.373Z,106.75
2019-03-20T10:53:38.236Z,105.40
2019-03-20T10:58:45.626Z,174.57
2019-03-20T11:03:52.581Z,182.07
2019-03-20T11:09:00.025Z,129.03
2019-03-20T11:14:09.296Z,130.22
2019-03-20T11:19:16.245Z,97.82
2019-03-20T11:24:23.129Z,96.30
2019-03-20T11:29:30.092Z,124.92
2019-03-20T11:34:37.608Z,128.65
2019-03-20T11:39:45.579Z,97.67
2019-03-20T11:44:52.648Z,75.90
2019-03-20T11:49:59.726Z,58.55
2019-03-20T11:55:07.928Z,72.78
2019-03-20T12:00:22.955Z,73.28
2019-03-20T12:05:30.374Z,79.62
2019-03-20T12:10:38.824Z,74.53
2019-03-20T12:15:46.044Z,83.52
2019-03-20T12:20:53.341Z,79.72
2019-03-20T12:26:00.154Z,77.85
2019-03-20T12:31:07.862Z,72.05
2019-03-20T12:36:16.015Z,74.58
2019-03-20T12:41:24.301Z,71.82
2019-03-20T12:46:41.335Z,72.87
2019-03-20T12:51:39.808Z,64.60
2019-03-20T12:56:47.103Z,83.85
2019-03-20T13:01:54.236Z,92.33
2019-03-20T13:07:01.621Z,86.95
2019-03-20T13:12:09.654Z,78.30
2019-03-20T13:17:16.826Z,71.37
2019-03-20T13:22:24.553Z,72.10
2019-03-20T13:27:33.884Z,74.17
2019-03-20T13:33:04.265Z,81.90
2019-03-20T13:38:12.207Z,79.70
2019-03-20T13:43:20.500Z,75.72
2019-03-20T13:48:28.785Z,71.45
2019-03-20T13:53:35.752Z,75.40
2019-03-20T13:58:42.714Z,74.80
2019-03-20T14:03:51.065Z,80.07
2019-03-20T14:08:57.962Z,84.07
2019-03-20T14:14:05.038Z,86.55
2019-03-20T14:19:13.341Z,83.10
2019-03-20T14:24:20.958Z,78.62
2019-03-20T14:29:29.373Z,100.87
2019-03-20T14:34:36.236Z,86.57
2019-03-20T14:39:43.149Z,92.57
2019-03-20T14:44:51.772Z,91.90
2019-03-20T14:49:59.488Z,84.28
2019-03-20T14:55:08.680Z,94.90
2019-03-20T15:00:18.270Z,89.28
2019-03-20T15:05:25.894Z,88.17
2019-03-20T15:10:32.800Z,82.05
2019-03-20T15:15:42.598Z,83.42
2019-03-20T15:20:49.677Z,80.60
2019-03-20T15:25:56.531Z,80.60
2019-03-20T15:31:03.586Z,86.75
2019-03-20T15:36:11.974Z,88.47
2019-03-20T15:41:19.051Z,81.35
2019-03-20T15:46:26.231Z,84.65
2019-03-20T15:51:34.625Z,86.85
2019-03-20T15:56:41.615Z,84.92
2019-03-20T16:01:48.634Z,85.80
2019-03-20T16:06:55.397Z,88.42
2019-03-20T16:12:02.201Z,87.47
2019-03-20T16:17:09.263Z,89.97
2019-03-20T16:22:16.202Z,87.12
2019-03-20T16:27:23.628Z,83.27
2019-03-20T16:32:30.506Z,92.42
2019-03-20T16:37:37.454Z,77.55
2019-03-20T16:42:44.601Z,82.17
2019-03-20T16:47:51.466Z,83.90
2019-03-20T16:52:58.640Z,98.87
2019-03-20T16:58:05.804Z,98.37
2019-03-20T17:03:12.812Z,102.17
2019-03-20T17:08:28.855Z,96.53
2019-03-20T17:13:35.722Z,101.33
2019-03-20T17:18:42.826Z,94.15
2019-03-20T17:23:50.268Z,93.62
2019-03-20T17:28:57.162Z,99.10
2019-03-20T17:34:04.349Z,99.72
2019-03-20T17:39:12.956Z,97.50
2019-03-20T17:44:19.959Z,95.92
2019-03-20T17:49:26.881Z,104.10
2019-03-20T17:54:33.893Z,92.60
2019-03-20T17:59:40.815Z,109.10
2019-03-20T18:04:47.923Z,117.62
2019-03-20T18:09:54.729Z,93.55
2019-03-20T18:15:03.169Z,102.53
2019-03-20T18:20:13.143Z,96.57
2019-03-20T18:25:20.323Z,92.05
2019-03-20T18:30:28.805Z,90.17
2019-03-20T18:35:36.085Z,97.62
2019-03-20T18:40:43.478Z,97.27
2019-03-20T18:45:52.385Z,99.13
2019-03-20T18:50:59.307Z,96.10
2019-03-20T18:56:06.508Z,103.90
2019-03-20T19:01:13.627Z,105.70
2019-03-20T19:06:23.357Z,104.45
2019-03-20T19:11:30.317Z,105.78
2019-03-20T19:16:37.348Z,101.58
2019-03-20T19:21:44.421Z,96.35
2019-03-20T19:26:51.794Z,89.13
2019-03-20T19:31:59.005Z,89.32
2019-03-20T19:37:05.998Z,99.10
2019-03-20T19:42:19.954Z,105.70
2019-03-20T19:47:21.354Z,105.80
2019-03-20T19:52:28.493Z,106.78
2019-03-20T19:57:35.292Z,109.97
2019-03-20T20:02:42.252Z,106.58
2019-03-20T20:07:49.480Z,103.20
2019-03-20T20:12:56.856Z,99.37
2019-03-20T20:18:03.846Z,98.25
2019-03-20T20:23:10.700Z,101.58
2019-03-20T20:28:17.647Z,99.17
2019-03-20T20:33:24.879Z,99.47
2019-03-20T20:38:31.791Z,82.88
2019-03-20T20:43:39.853Z,91.25
2019-03-20T20:48:46.878Z,89.58
2019-03-20T20:53:53.666Z,83.10
2019-03-20T20:59:00.755Z,72.70
2019-03-20T21:04:07.726Z,77.95
2019-03-20T21:09:15.018Z,74.53
2019-03-20T21:14:22.590Z,76.72
2019-03-20T21:19:37.362Z,74.10
2019-03-20T21:24:44.436Z,76.25
2019-03-20T21:29:53.967Z,80.87
2019-03-20T21:35:03.538Z,75.35
2019-03-20T21:40:13.031Z,72.70
2019-03-20T21:45:21.559Z,71.87
2019-03-20T21:50:31.231Z,68.47
2019-03-20T21:55:40.784Z,67.37
2019-03-20T22:00:50.996Z,78.57
2019-03-20T22:05:58.814Z,77.23
2019-03-20T22:11:08.683Z,75.90
2019-03-20T22:16:21.170Z,79.62
2019-03-20T22:21:31.208Z,84.55
2019-03-20T22:26:40.836Z,82.27
2019-03-20T22:31:50.835Z,87.67
2019-03-20T22:36:58.099Z,73.70
2019-03-20T22:42:07.991Z,78.25
2019-03-20T22:47:17.879Z,75.90
2019-03-20T22:52:28.697Z,74.90
2019-03-20T22:57:38.496Z,85.65
2019-03-20T23:02:49.129Z,80.28
2019-03-20T23:07:56.293Z,80.00
2019-03-20T23:13:03.299Z,90.28
2019-03-20T23:18:10.265Z,75.80
2019-03-20T23:23:17.330Z,72.75
2019-03-20T23:28:24.577Z,82.70
2019-03-20T23:33:31.610Z,100.25
2019-03-20T23:38:38.897Z,82.35
2019-03-20T23:43:52.885Z,89.85
2019-03-20T23:48:57.238Z,90.42
2019-03-20T23:54:04.447Z,110.60
2019-03-20T23:59:11.595Z,156.72
